This is the latest recevied weather packets stored in our database for station/object WASS. If no packets are shown the sender has not sent any weather packets the latest 10 day(s).
| Time | Temp. | Humidity | Pressure | Rain* | Wind** | Luminosity | Snow |
|---|---|---|---|---|---|---|---|
| 1787735578 | 30° C | 70% | 1010 hPa | 0 mm | - | - | - |
| 1787733586 | 30° C | 75% | 1010 hPa | 0 mm | - | - | - |
| 1787731587 | 30° C | 75% | 1010 hPa | 0 mm | - | - | - |
| 1787729601 | 30° C | 75% | 1010 hPa | 0 mm | - | - | - |
| 1787727609 | 31.11° C | 70% | 1010 hPa | 0 mm | - | - | - |
| 1787725618 | 31.11° C | 70% | 1011 hPa | 0 mm | - | - | - |
| 1787723631 | 32.22° C | 67% | 1011 hPa | 0 mm | - | - | - |
| 1787721648 | 31.11° C | 70% | 1012 hPa | 0 mm | - | - | - |
| 1787719639 | 31.11° C | 70% | 1012 hPa | 0 mm | - | - | - |
| 1787717658 | 30° C | 75% | 1013 hPa | 0 mm | - | - | - |
| 1787715677 | 31.11° C | 66% | 1013 hPa | 0 mm | - | - | - |
| 1787713706 | 31.11° C | 66% | 1014 hPa | 0 mm | - | - | - |
| 1787711733 | 27.78° C | 79% | 1014 hPa | 0 mm | - | - | - |
| 1787709760 | 27.78° C | 84% | 1014 hPa | 0 mm | - | - | - |
| 1787707772 | 27.78° C | 84% | 1014 hPa | 0 mm | - | - | - |
| 1787705794 | 27.22° C | 89% | 1014 hPa | 0 mm | - | - | - |
| 1787703825 | 26.11° C | 94% | 1014 hPa | 0 mm | - | - | - |
| 1787701848 | 25° C | 94% | 1014 hPa | 0 mm | - | - | - |
| 1787699876 | 23.89° C | 94% | 1013 hPa | 0 mm | - | - | - |
| 1787697902 | 22.78° C | 94% | 1013 hPa | 0 mm | - | - | - |
| 1787695931 | 22.78° C | 99% | 1013 hPa | 0 mm | - | - | - |
| 1787693963 | 22.78° C | 99% | 1013 hPa | 0 mm | - | - | - |
| 1787692561 | 22.22° C | 99% | 1013 hPa | 0 mm | - | - | - |
| 1787690600 | 22.78° C | 94% | 1013 hPa | 0 mm | - | - | - |
| 1787688639 | 22.22° C | 99% | 1013 hPa | 0 mm | - | - | - |
* Rain latest hour (hover to see other rain measurements)
** Current wind speed in m/s (hover to see current wind gust speed)